createdAt,value
2023-05-18T00:00:01.777Z,92.32
2023-05-18T00:01:01.792Z,92.41
2023-05-18T00:02:01.807Z,92.03
2023-05-18T00:03:01.962Z,92.22
2023-05-18T00:04:01.939Z,92.03
2023-05-18T00:05:01.856Z,92.51
2023-05-18T00:06:01.869Z,92.32
2023-05-18T00:07:01.879Z,92.70
2023-05-18T00:08:01.890Z,92.61
2023-05-18T00:09:01.919Z,92.70
2023-05-18T00:10:02.081Z,92.80
2023-05-18T00:11:01.933Z,92.89
2023-05-18T00:12:01.951Z,92.70
2023-05-18T00:13:01.970Z,92.80
2023-05-18T00:14:01.980Z,92.61
2023-05-18T00:15:02.001Z,92.61
2023-05-18T00:16:02.084Z,92.80
2023-05-18T00:17:02.112Z,92.99
2023-05-18T00:18:02.088Z,92.80
2023-05-18T00:19:02.115Z,92.80
2023-05-18T00:20:02.067Z,92.99
2023-05-18T00:21:02.406Z,92.89
2023-05-18T00:22:02.095Z,92.61
2023-05-18T00:23:02.107Z,93.18
2023-05-18T00:24:02.117Z,93.37
2023-05-18T00:25:02.146Z,93.27
2023-05-18T00:26:02.144Z,93.27
2023-05-18T00:27:02.188Z,93.37
2023-05-18T00:28:02.170Z,93.27
2023-05-18T00:29:02.186Z,93.46
2023-05-18T00:30:02.214Z,93.37
2023-05-18T00:31:02.214Z,93.37
2023-05-18T00:32:02.358Z,93.65
2023-05-18T00:33:02.350Z,93.27
2023-05-18T00:34:02.276Z,93.37
2023-05-18T00:35:02.275Z,94.13
2023-05-18T00:36:02.291Z,94.13
2023-05-18T00:37:02.315Z,93.89
2023-05-18T00:38:02.313Z,93.99
2023-05-18T00:39:02.331Z,94.60
2023-05-18T00:40:02.353Z,95.12
2023-05-18T00:41:02.365Z,94.93
2023-05-18T00:42:02.370Z,94.84
2023-05-18T00:43:02.392Z,94.93
2023-05-18T00:44:02.402Z,94.89
2023-05-18T00:45:02.416Z,95.27
2023-05-18T00:46:02.479Z,95.75
2023-05-18T00:47:02.454Z,95.70
2023-05-18T00:48:02.504Z,95.36
2023-05-18T00:49:02.486Z,95.36
2023-05-18T00:50:02.480Z,95.36
2023-05-18T00:51:02.503Z,95.75
2023-05-18T00:52:02.510Z,95.94
2023-05-18T00:53:02.524Z,95.22
2023-05-18T00:54:02.544Z,95.65
2023-05-18T00:55:02.557Z,95.41
2023-05-18T00:56:02.568Z,95.60
2023-05-18T00:57:02.591Z,95.60
2023-05-18T00:58:02.669Z,96.08
2023-05-18T00:59:02.609Z,96.36
2023-05-18T01:00:02.622Z,95.89
2023-05-18T01:01:02.694Z,96.55
2023-05-18T01:02:02.684Z,96.26
2023-05-18T01:03:02.786Z,96.55
2023-05-18T01:04:02.736Z,96.36
2023-05-18T01:05:02.689Z,96.45
2023-05-18T01:06:02.707Z,96.65
2023-05-18T01:07:02.718Z,96.74
2023-05-18T01:08:02.728Z,96.60
2023-05-18T01:09:02.767Z,96.45
2023-05-18T01:10:02.769Z,96.74
2023-05-18T01:11:02.827Z,97.22
2023-05-18T01:12:02.786Z,96.74
2023-05-18T01:13:02.867Z,97.31
2023-05-18T01:14:02.812Z,97.03
2023-05-18T01:15:02.840Z,97.64
2023-05-18T01:16:02.847Z,97.60
2023-05-18T01:17:02.911Z,97.41
2023-05-18T01:18:02.879Z,97.78
2023-05-18T01:19:02.914Z,97.88
2023-05-18T01:20:02.907Z,97.31
2023-05-18T01:21:02.904Z,97.50
2023-05-18T01:22:02.929Z,97.50
2023-05-18T01:23:02.937Z,97.64
2023-05-18T01:24:02.948Z,97.22
2023-05-18T01:25:02.963Z,97.69
2023-05-18T01:26:02.978Z,97.41
2023-05-18T01:27:02.988Z,97.69
2023-05-18T01:28:03.000Z,97.22
2023-05-18T01:29:03.030Z,97.60
2023-05-18T01:30:03.031Z,97.27
2023-05-18T01:31:03.078Z,97.69
2023-05-18T01:32:03.057Z,97.69
2023-05-18T01:33:03.182Z,98.26
2023-05-18T01:34:03.096Z,98.36
2023-05-18T01:35:03.153Z,98.07
2023-05-18T01:36:03.117Z,98.17
2023-05-18T01:37:03.124Z,98.07
2023-05-18T01:38:03.145Z,97.97
2023-05-18T01:39:03.158Z,98.45
2023-05-18T01:40:03.171Z,97.88
2023-05-18T01:41:03.178Z,98.12
2023-05-18T01:42:03.200Z,98.45
2023-05-18T01:43:03.206Z,98.60
2023-05-18T01:44:03.253Z,98.22
2023-05-18T01:45:03.250Z,98.36
2023-05-18T01:46:03.285Z,98.74
2023-05-18T01:47:03.264Z,98.36
2023-05-18T01:48:03.340Z,98.26
2023-05-18T01:49:03.291Z,98.45
2023-05-18T01:50:03.344Z,98.22
2023-05-18T01:51:03.326Z,98.55
2023-05-18T01:52:03.335Z,98.41
2023-05-18T01:53:03.343Z,98.41
2023-05-18T01:54:03.357Z,98.79
2023-05-18T01:55:03.416Z,99.02
2023-05-18T01:56:03.388Z,99.16
2023-05-18T01:57:03.400Z,99.07
2023-05-18T01:58:03.426Z,99.02
2023-05-18T01:59:03.432Z,98.83
2023-05-18T02:00:03.438Z,98.83
2023-05-18T02:01:03.451Z,98.83
2023-05-18T02:02:03.633Z,98.36
2023-05-18T02:03:03.576Z,99.02
2023-05-18T02:04:03.552Z,99.02
2023-05-18T02:05:03.514Z,98.93
2023-05-18T02:06:03.520Z,98.74
2023-05-18T02:07:03.553Z,99.02
2023-05-18T02:08:03.559Z,99.02
2023-05-18T02:09:03.561Z,99.59
2023-05-18T02:10:03.575Z,99.21
2023-05-18T02:11:03.584Z,99.50
2023-05-18T02:12:03.600Z,99.69
2023-05-18T02:13:03.616Z,99.97
2023-05-18T02:14:03.629Z,99.78
2023-05-18T02:15:03.638Z,99.99
2023-05-18T02:16:03.688Z,99.99
2023-05-18T02:17:03.670Z,99.99
2023-05-18T02:18:03.716Z,99.97
2023-05-18T02:19:03.804Z,99.99
2023-05-18T02:20:03.708Z,99.99
2023-05-18T02:21:03.719Z,99.99
2023-05-18T02:22:03.734Z,99.99
2023-05-18T02:23:03.747Z,99.99
2023-05-18T02:24:03.754Z,99.99
2023-05-18T02:25:03.779Z,99.50
2023-05-18T02:26:03.800Z,99.99
2023-05-18T02:27:03.799Z,99.88
2023-05-18T02:28:03.811Z,99.99
2023-05-18T02:29:03.837Z,99.99
2023-05-18T02:30:03.838Z,99.99
2023-05-18T02:31:03.878Z,99.99
2023-05-18T02:32:03.912Z,99.99
2023-05-18T02:33:03.912Z,99.99
2023-05-18T02:34:03.894Z,99.99
2023-05-18T02:35:03.956Z,99.99
2023-05-18T02:36:03.918Z,99.99
2023-05-18T02:37:03.927Z,99.99
2023-05-18T02:38:03.946Z,99.99
2023-05-18T02:39:03.967Z,99.99
2023-05-18T02:40:03.984Z,99.99
2023-05-18T02:41:03.984Z,99.99
2023-05-18T02:42:04.001Z,99.99
2023-05-18T02:43:04.012Z,99.99
2023-05-18T02:44:04.031Z,99.99
2023-05-18T02:45:04.039Z,99.99
2023-05-18T02:46:04.072Z,99.99
2023-05-18T02:47:04.068Z,99.99
2023-05-18T02:48:04.120Z,99.99
2023-05-18T02:49:04.092Z,99.99
2023-05-18T02:50:04.116Z,99.99
2023-05-18T02:51:04.120Z,99.99
2023-05-18T02:52:04.137Z,99.99
2023-05-18T02:53:04.149Z,99.99
2023-05-18T02:54:04.163Z,99.99
2023-05-18T02:55:04.177Z,99.99
2023-05-18T02:56:04.201Z,99.99
2023-05-18T02:57:04.202Z,99.99
2023-05-18T02:58:04.218Z,99.99
2023-05-18T02:59:05.072Z,99.99
2023-05-18T03:00:04.248Z,99.99
2023-05-18T03:01:04.284Z,99.99
2023-05-18T03:02:04.286Z,99.99
2023-05-18T03:03:04.422Z,99.99
2023-05-18T03:04:04.299Z,99.99
2023-05-18T03:05:04.310Z,99.99
2023-05-18T03:06:04.321Z,99.99
2023-05-18T03:07:04.353Z,99.99
2023-05-18T03:08:04.352Z,99.99
2023-05-18T03:09:04.365Z,99.99
2023-05-18T03:10:04.418Z,99.99
2023-05-18T03:11:04.393Z,99.99
2023-05-18T03:12:04.404Z,99.99
2023-05-18T03:13:04.419Z,99.99
2023-05-18T03:14:04.442Z,99.99
2023-05-18T03:15:04.445Z,99.99
2023-05-18T03:16:04.480Z,99.99
2023-05-18T03:17:04.582Z,99.99
2023-05-18T03:18:04.529Z,99.99
2023-05-18T03:19:04.555Z,99.99
2023-05-18T03:20:04.532Z,99.99
2023-05-18T03:21:04.524Z,99.99
2023-05-18T03:22:04.537Z,99.99
2023-05-18T03:23:04.550Z,99.99
2023-05-18T03:24:04.567Z,99.99
2023-05-18T03:25:04.578Z,99.99
2023-05-18T03:26:04.593Z,99.99
2023-05-18T03:27:04.608Z,99.99
2023-05-18T03:28:04.619Z,99.99
2023-05-18T03:29:04.639Z,99.99
2023-05-18T03:30:04.652Z,99.99
2023-05-18T03:31:04.675Z,99.99
2023-05-18T03:32:04.667Z,99.99
2023-05-18T03:33:04.730Z,99.99
2023-05-18T03:34:04.730Z,99.99
2023-05-18T03:35:04.708Z,99.99
2023-05-18T03:36:04.727Z,99.99
2023-05-18T03:37:04.753Z,99.99
2023-05-18T03:38:04.750Z,99.99
2023-05-18T03:39:04.762Z,99.99
2023-05-18T03:40:04.776Z,99.99
2023-05-18T03:41:04.798Z,99.99
2023-05-18T03:42:04.804Z,99.99
2023-05-18T03:43:04.818Z,99.99
2023-05-18T03:44:04.829Z,99.99
2023-05-18T03:45:04.838Z,99.99
2023-05-18T03:46:04.863Z,99.99
2023-05-18T03:47:04.868Z,99.99
2023-05-18T03:48:04.932Z,99.99
2023-05-18T03:49:04.906Z,99.99
2023-05-18T03:50:04.909Z,99.99
2023-05-18T03:51:04.927Z,99.99
2023-05-18T03:52:04.936Z,99.99
2023-05-18T03:53:04.951Z,99.99
2023-05-18T03:54:04.963Z,99.99
2023-05-18T03:55:04.976Z,99.99
2023-05-18T03:56:04.996Z,99.99
2023-05-18T03:57:05.002Z,99.99
2023-05-18T03:58:05.014Z,99.99
2023-05-18T03:59:05.030Z,99.99
2023-05-18T04:00:05.041Z,99.99
2023-05-18T04:01:05.057Z,99.99
2023-05-18T04:02:05.113Z,99.99
2023-05-18T04:03:05.187Z,99.99
2023-05-18T04:04:05.162Z,99.99
2023-05-18T04:05:05.106Z,99.99
2023-05-18T04:06:05.121Z,99.99
2023-05-18T04:07:05.137Z,99.99
2023-05-18T04:08:05.159Z,99.99
2023-05-18T04:09:05.165Z,99.99
2023-05-18T04:10:05.175Z,99.99
2023-05-18T04:11:05.184Z,99.99
2023-05-18T04:12:05.209Z,99.99
2023-05-18T04:13:05.225Z,99.99
2023-05-18T04:14:05.226Z,99.99
2023-05-18T04:15:05.295Z,99.99
2023-05-18T04:16:05.306Z,99.99
2023-05-18T04:17:05.264Z,99.99
2023-05-18T04:18:05.346Z,99.99
2023-05-18T04:19:07.192Z,99.99
2023-05-18T04:20:05.305Z,99.99
2023-05-18T04:21:05.318Z,99.99
2023-05-18T04:22:05.328Z,99.99
2023-05-18T04:23:05.351Z,99.99
2023-05-18T04:24:05.383Z,99.99
2023-05-18T04:25:05.372Z,99.99
2023-05-18T04:26:05.394Z,99.99
2023-05-18T04:27:05.398Z,99.99
2023-05-18T04:28:05.433Z,99.99
2023-05-18T04:29:05.430Z,99.99
2023-05-18T04:30:05.444Z,99.99
2023-05-18T04:31:05.450Z,99.99
2023-05-18T04:32:05.525Z,99.99
2023-05-18T04:33:05.499Z,99.99
2023-05-18T04:34:05.489Z,99.99
2023-05-18T04:35:05.504Z,99.99
2023-05-18T04:36:05.531Z,99.99
2023-05-18T04:37:05.551Z,99.99
2023-05-18T04:38:05.582Z,99.99
2023-05-18T04:39:05.563Z,99.99
2023-05-18T04:40:05.575Z,99.99
2023-05-18T04:41:05.585Z,99.99
2023-05-18T04:42:05.601Z,99.99
2023-05-18T04:43:05.617Z,99.99
2023-05-18T04:44:05.624Z,99.99
2023-05-18T04:45:05.638Z,99.99
2023-05-18T04:46:05.656Z,99.99
2023-05-18T04:47:05.671Z,99.99
2023-05-18T04:48:05.766Z,99.99
2023-05-18T04:49:05.696Z,99.99
2023-05-18T04:50:05.709Z,99.99
2023-05-18T04:51:05.724Z,99.99
2023-05-18T04:52:05.735Z,99.99
2023-05-18T04:53:05.749Z,99.99
2023-05-18T04:54:05.766Z,99.99
2023-05-18T04:55:05.781Z,99.99
2023-05-18T04:56:05.799Z,99.99
2023-05-18T04:57:05.801Z,99.99
2023-05-18T04:58:05.818Z,99.99
2023-05-18T04:59:05.832Z,99.99
2023-05-18T05:00:05.846Z,99.99
2023-05-18T05:01:05.912Z,99.99
2023-05-18T05:02:05.883Z,99.99
2023-05-18T05:03:06.071Z,99.99
2023-05-18T05:04:05.895Z,99.99
2023-05-18T05:05:05.912Z,99.99
2023-05-18T05:06:05.920Z,99.99
2023-05-18T05:07:05.945Z,99.99
2023-05-18T05:08:05.947Z,99.99
2023-05-18T05:09:05.959Z,99.99
2023-05-18T05:10:05.974Z,99.99
2023-05-18T05:11:05.998Z,99.99
2023-05-18T05:12:06.005Z,99.99
2023-05-18T05:13:06.013Z,99.99
2023-05-18T05:14:06.027Z,99.99
2023-05-18T05:15:06.051Z,99.99
2023-05-18T05:16:06.113Z,99.99
2023-05-18T05:17:06.072Z,99.99
2023-05-18T05:18:06.103Z,99.99
2023-05-18T05:19:06.161Z,99.99
2023-05-18T05:20:06.108Z,99.99
2023-05-18T05:21:06.121Z,99.99
2023-05-18T05:22:06.136Z,99.99
2023-05-18T05:23:06.191Z,99.99
2023-05-18T05:24:06.168Z,99.99
2023-05-18T05:25:06.388Z,99.99
2023-05-18T05:26:06.193Z,99.99
2023-05-18T05:27:06.208Z,99.99
2023-05-18T05:28:06.220Z,99.99
2023-05-18T05:29:06.247Z,99.99
2023-05-18T05:30:06.253Z,99.99
2023-05-18T05:31:06.266Z,99.99
2023-05-18T05:32:06.280Z,99.99
2023-05-18T05:33:06.352Z,99.99
2023-05-18T05:34:06.302Z,99.99
2023-05-18T05:35:06.338Z,99.99
2023-05-18T05:36:06.341Z,99.99
2023-05-18T05:37:06.367Z,99.99
2023-05-18T05:38:06.433Z,99.99
2023-05-18T05:39:06.387Z,99.99
2023-05-18T05:40:06.564Z,99.99
2023-05-18T05:41:06.416Z,99.99
2023-05-18T05:42:06.434Z,99.99
2023-05-18T05:43:06.452Z,99.99
2023-05-18T05:44:06.463Z,99.99
2023-05-18T05:45:06.490Z,99.99
2023-05-18T05:46:06.491Z,99.99
2023-05-18T05:47:06.609Z,99.99
2023-05-18T05:48:06.580Z,99.99
2023-05-18T05:49:06.571Z,99.89
2023-05-18T05:50:06.568Z,99.89
2023-05-18T05:51:06.572Z,99.79
2023-05-18T05:52:06.594Z,99.99
2023-05-18T05:53:06.608Z,99.99
2023-05-18T05:54:07.459Z,99.60
2023-05-18T05:55:06.636Z,99.79
2023-05-18T05:56:06.652Z,99.60
2023-05-18T05:57:06.669Z,99.22
2023-05-18T05:58:06.681Z,99.03
2023-05-18T05:59:06.702Z,98.94
2023-05-18T06:00:06.714Z,98.46
2023-05-18T06:01:06.728Z,98.27
2023-05-18T06:02:06.755Z,98.46
2023-05-18T06:03:06.804Z,97.89
2023-05-18T06:04:06.848Z,97.89
2023-05-18T06:05:06.793Z,97.79
2023-05-18T06:06:06.810Z,97.31
2023-05-18T06:07:06.827Z,97.60
2023-05-18T06:08:06.840Z,97.31
2023-05-18T06:09:06.857Z,97.51
2023-05-18T06:10:06.877Z,97.70
2023-05-18T06:11:07.787Z,97.22
2023-05-18T06:12:06.903Z,97.51
2023-05-18T06:13:06.926Z,96.65
2023-05-18T06:14:06.950Z,96.84
2023-05-18T06:15:06.953Z,96.41
2023-05-18T06:16:07.004Z,96.60
2023-05-18T06:17:07.001Z,96.80
2023-05-18T06:18:07.056Z,96.60
2023-05-18T06:19:07.126Z,96.60
2023-05-18T06:20:07.042Z,96.98
2023-05-18T06:21:07.054Z,96.89
2023-05-18T06:22:07.076Z,95.94
2023-05-18T06:23:07.081Z,96.22
2023-05-18T06:24:07.096Z,96.17
2023-05-18T06:25:07.146Z,95.89
2023-05-18T06:26:07.152Z,95.70
2023-05-18T06:27:07.146Z,95.61
2023-05-18T06:28:07.163Z,94.51
2023-05-18T06:29:07.190Z,94.12
2023-05-18T06:30:07.204Z,94.51
2023-05-18T06:31:07.252Z,93.79
2023-05-18T06:32:07.293Z,92.46
2023-05-18T06:33:07.307Z,91.45
2023-05-18T06:34:07.273Z,90.78
2023-05-18T06:35:07.319Z,90.31
2023-05-18T06:36:07.323Z,88.73
2023-05-18T06:37:07.333Z,88.29
2023-05-18T06:38:07.349Z,86.96
2023-05-18T06:39:07.371Z,86.10
2023-05-18T06:40:07.409Z,86.43
2023-05-18T06:41:07.420Z,86.43
2023-05-18T06:42:07.461Z,86.37
2023-05-18T06:43:07.455Z,85.41
2023-05-18T06:44:07.479Z,84.84
2023-05-18T06:45:07.490Z,84.69
2023-05-18T06:46:07.553Z,83.39
2023-05-18T06:47:07.547Z,81.29
2023-05-18T06:48:07.647Z,81.20
2023-05-18T06:49:07.588Z,80.85
2023-05-18T06:50:07.598Z,80.85
2023-05-18T06:51:07.630Z,80.27
2023-05-18T06:52:07.648Z,79.07
2023-05-18T06:53:07.669Z,77.53
2023-05-18T06:54:07.693Z,76.86
2023-05-18T06:55:07.722Z,76.39
2023-05-18T06:56:07.730Z,76.14
2023-05-18T06:57:07.756Z,75.46
2023-05-18T06:58:07.776Z,74.51
2023-05-18T06:59:07.801Z,74.44
2023-05-18T07:00:07.822Z,73.97
2023-05-18T07:01:07.877Z,73.20
2023-05-18T07:02:07.863Z,73.20
2023-05-18T07:03:08.006Z,71.80
2023-05-18T07:04:08.128Z,70.84
2023-05-18T07:05:07.949Z,70.45
2023-05-18T07:06:07.968Z,70.26
2023-05-18T07:07:07.992Z,70.55
2023-05-18T07:08:08.082Z,69.62
2023-05-18T07:09:08.048Z,70.29
2023-05-18T07:10:08.060Z,70.29
2023-05-18T07:11:08.076Z,69.34
2023-05-18T07:12:08.102Z,69.24
2023-05-18T07:13:08.122Z,69.18
2023-05-18T07:14:08.149Z,69.18
2023-05-18T07:15:08.173Z,69.27
2023-05-18T07:16:08.303Z,68.89
2023-05-18T07:17:08.219Z,68.41
2023-05-18T07:18:08.297Z,68.31
2023-05-18T07:19:08.373Z,68.73
2023-05-18T07:20:08.298Z,69.02
2023-05-18T07:21:08.310Z,68.06
2023-05-18T07:22:08.353Z,67.00
2023-05-18T07:23:08.363Z,66.61
2023-05-18T07:24:08.396Z,65.94
2023-05-18T07:25:08.410Z,64.89
2023-05-18T07:26:08.435Z,64.69
2023-05-18T07:27:08.459Z,65.84
2023-05-18T07:28:08.488Z,66.52
2023-05-18T07:29:08.508Z,66.17
2023-05-18T07:30:08.538Z,65.78
2023-05-18T07:31:08.600Z,65.30
2023-05-18T07:32:08.587Z,64.92
2023-05-18T07:33:08.690Z,64.92
2023-05-18T07:34:08.629Z,64.82
2023-05-18T07:35:08.663Z,63.99
2023-05-18T07:36:08.690Z,64.53
2023-05-18T07:37:08.708Z,64.37
2023-05-18T07:38:08.734Z,63.89
2023-05-18T07:39:08.764Z,63.89
2023-05-18T07:40:08.790Z,63.51
2023-05-18T07:41:08.824Z,63.41
2023-05-18T07:42:08.837Z,63.41
2023-05-18T07:43:08.870Z,62.23
2023-05-18T07:44:08.886Z,62.61
2023-05-18T07:45:08.913Z,63.28
2023-05-18T07:46:08.945Z,63.67
2023-05-18T07:47:09.111Z,63.09
2023-05-18T07:48:09.029Z,63.35
2023-05-18T07:49:09.018Z,62.96
2023-05-18T07:50:09.043Z,62.77
2023-05-18T07:51:09.069Z,62.87
2023-05-18T07:52:09.102Z,63.45
2023-05-18T07:53:09.113Z,62.45
2023-05-18T07:54:09.158Z,62.45
2023-05-18T07:55:09.162Z,62.45
2023-05-18T07:56:09.180Z,62.93
2023-05-18T07:57:09.203Z,61.81
2023-05-18T07:58:09.231Z,62.10
2023-05-18T07:59:09.259Z,61.52
2023-05-18T08:00:09.277Z,61.23
2023-05-18T08:01:09.312Z,60.34
2023-05-18T08:02:09.342Z,60.72
2023-05-18T08:03:09.416Z,60.72
2023-05-18T08:04:09.482Z,61.04
2023-05-18T08:05:09.404Z,61.49
2023-05-18T08:06:09.429Z,61.20
2023-05-18T08:07:09.455Z,61.78
2023-05-18T08:08:09.490Z,61.49
2023-05-18T08:09:09.525Z,61.40
2023-05-18T08:10:09.529Z,61.49
2023-05-18T08:11:09.567Z,61.01
2023-05-18T08:12:09.591Z,62.38
2023-05-18T08:13:09.607Z,62.26
2023-05-18T08:14:09.632Z,62.45
2023-05-18T08:15:09.657Z,62.16
2023-05-18T08:16:12.199Z,61.30
2023-05-18T08:17:09.772Z,61.01
2023-05-18T08:18:09.797Z,61.04
2023-05-18T08:19:09.845Z,60.37
2023-05-18T08:20:09.788Z,60.56
2023-05-18T08:21:10.180Z,59.76
2023-05-18T08:22:09.826Z,59.57
2023-05-18T08:23:09.854Z,59.38
2023-05-18T08:24:09.885Z,59.57
2023-05-18T08:25:09.907Z,60.14
2023-05-18T08:26:11.421Z,60.72
2023-05-18T08:27:09.953Z,60.63
2023-05-18T08:28:09.978Z,60.91
2023-05-18T08:29:10.003Z,60.91
2023-05-18T08:30:10.084Z,60.82
2023-05-18T08:31:10.054Z,60.34
2023-05-18T08:32:10.121Z,60.43
2023-05-18T08:33:10.135Z,60.14
2023-05-18T08:34:10.128Z,60.66
2023-05-18T08:35:10.192Z,61.11
2023-05-18T08:36:10.182Z,60.46
2023-05-18T08:37:10.201Z,60.66
2023-05-18T08:38:10.228Z,61.14
2023-05-18T08:39:10.257Z,60.56
2023-05-18T08:40:10.283Z,59.99
2023-05-18T08:41:10.309Z,59.12
2023-05-18T08:42:10.335Z,58.92
2023-05-18T08:43:10.361Z,58.83
2023-05-18T08:44:10.385Z,58.73
2023-05-18T08:45:10.410Z,59.31
2023-05-18T08:46:10.437Z,59.60
2023-05-18T08:47:10.461Z,59.41
2023-05-18T08:48:10.573Z,59.50
2023-05-18T08:49:10.696Z,59.12
2023-05-18T08:50:10.535Z,59.69
2023-05-18T08:51:10.566Z,59.38
2023-05-18T08:52:10.586Z,59.76
2023-05-18T08:53:10.612Z,60.11
2023-05-18T08:54:10.634Z,60.69
2023-05-18T08:55:12.182Z,60.43
2023-05-18T08:56:10.696Z,61.01
2023-05-18T08:57:10.707Z,60.91
2023-05-18T08:58:10.739Z,61.40
2023-05-18T08:59:10.756Z,61.11
2023-05-18T09:00:10.787Z,61.11
2023-05-18T09:01:10.852Z,60.40
2023-05-18T09:02:10.917Z,60.78
2023-05-18T09:03:10.915Z,61.01
2023-05-18T09:04:10.883Z,60.98
2023-05-18T09:05:10.963Z,60.98
2023-05-18T09:06:10.940Z,60.69
2023-05-18T09:07:10.967Z,61.05
2023-05-18T09:08:10.987Z,61.62
2023-05-18T09:09:11.027Z,62.01
2023-05-18T09:10:11.031Z,62.01
2023-05-18T09:11:11.068Z,62.77
2023-05-18T09:12:11.079Z,62.87
2023-05-18T09:13:11.111Z,62.36
2023-05-18T09:14:11.120Z,62.84
2023-05-18T09:15:11.144Z,62.84
2023-05-18T09:16:11.209Z,63.32
2023-05-18T09:17:11.205Z,63.19
2023-05-18T09:18:11.242Z,63.57
2023-05-18T09:19:11.315Z,64.05
2023-05-18T09:20:11.259Z,63.86
2023-05-18T09:21:11.284Z,64.25
2023-05-18T09:22:11.306Z,63.76
2023-05-18T09:23:11.328Z,63.86
2023-05-18T09:24:11.346Z,63.86
2023-05-18T09:25:11.382Z,63.96
2023-05-18T09:26:11.470Z,64.25
2023-05-18T09:27:11.424Z,64.63
2023-05-18T09:28:11.437Z,64.15
2023-05-18T09:29:11.461Z,63.96
2023-05-18T09:30:11.542Z,64.43
2023-05-18T09:31:11.563Z,63.86
2023-05-18T09:32:11.524Z,63.12
2023-05-18T09:33:11.590Z,63.42
2023-05-18T09:34:11.614Z,63.51
2023-05-18T09:35:11.649Z,62.87
2023-05-18T09:36:11.625Z,63.45
2023-05-18T09:37:11.648Z,62.61
2023-05-18T09:38:11.670Z,61.46
2023-05-18T09:39:11.698Z,60.98
2023-05-18T09:40:11.717Z,60.31
2023-05-18T09:41:11.744Z,59.19
2023-05-18T09:42:11.778Z,58.61
2023-05-18T09:43:11.794Z,59.09
2023-05-18T09:44:11.817Z,58.89
2023-05-18T09:45:11.844Z,59.28
2023-05-18T09:46:11.919Z,59.57
2023-05-18T09:47:11.912Z,59.57
2023-05-18T09:48:11.967Z,60.43
2023-05-18T09:49:11.935Z,60.53
2023-05-18T09:50:11.967Z,60.53
2023-05-18T09:51:11.983Z,60.91
2023-05-18T09:52:12.014Z,60.91
2023-05-18T09:53:12.031Z,60.82
2023-05-18T09:54:12.059Z,61.11
2023-05-18T09:55:12.092Z,60.82
2023-05-18T09:56:12.160Z,60.14
2023-05-18T09:57:12.126Z,59.79
2023-05-18T09:58:12.153Z,59.60
2023-05-18T09:59:12.189Z,59.79
2023-05-18T10:00:12.207Z,59.50
2023-05-18T10:01:12.277Z,59.02
2023-05-18T10:02:12.299Z,58.67
2023-05-18T10:03:12.281Z,58.37
2023-05-18T10:04:12.329Z,58.67
2023-05-18T10:05:12.332Z,58.57
2023-05-18T10:06:12.369Z,59.53
2023-05-18T10:07:12.407Z,59.05
2023-05-18T10:08:12.411Z,58.67
2023-05-18T10:09:12.435Z,58.18
2023-05-18T10:10:12.490Z,58.86
2023-05-18T10:11:12.487Z,58.98
2023-05-18T10:12:12.519Z,57.83
2023-05-18T10:13:12.543Z,56.90
2023-05-18T10:14:12.589Z,57.18
2023-05-18T10:15:12.596Z,56.90
2023-05-18T10:16:12.653Z,56.90
2023-05-18T10:17:15.570Z,56.82
2023-05-18T10:18:12.766Z,56.35
2023-05-18T10:19:12.774Z,56.15
2023-05-18T10:20:12.736Z,56.54
2023-05-18T10:21:12.786Z,56.63
2023-05-18T10:22:12.809Z,56.63
2023-05-18T10:23:12.814Z,55.77
2023-05-18T10:24:12.848Z,56.15
2023-05-18T10:25:12.866Z,55.99
2023-05-18T10:26:12.901Z,55.99
2023-05-18T10:27:12.922Z,56.01
2023-05-18T10:28:12.958Z,55.08
2023-05-18T10:29:12.994Z,54.60
2023-05-18T10:30:13.023Z,53.83
2023-05-18T10:31:13.089Z,53.17
2023-05-18T10:32:13.109Z,52.50
2023-05-18T10:33:21.013Z,51.75
2023-05-18T10:34:13.129Z,52.23
2023-05-18T10:35:13.155Z,52.75
2023-05-18T10:36:13.196Z,52.26
2023-05-18T10:37:13.210Z,51.71
2023-05-18T10:38:13.252Z,51.35
2023-05-18T10:39:13.284Z,51.64
2023-05-18T10:40:13.315Z,51.95
2023-05-18T10:41:13.348Z,51.30
2023-05-18T10:42:13.370Z,49.65
2023-05-18T10:43:13.397Z,48.13
2023-05-18T10:44:13.425Z,48.61
2023-05-18T10:45:13.460Z,49.51
2023-05-18T10:46:13.552Z,49.51
2023-05-18T10:47:13.545Z,48.25
2023-05-18T10:48:13.567Z,48.08
2023-05-18T10:49:13.587Z,47.23
2023-05-18T10:50:13.626Z,47.20
2023-05-18T10:51:13.653Z,47.40
2023-05-18T10:52:13.685Z,47.30
2023-05-18T10:53:13.716Z,47.11
2023-05-18T10:54:13.749Z,46.70
2023-05-18T10:55:13.800Z,46.19
2023-05-18T10:56:13.808Z,46.58
2023-05-18T10:57:13.840Z,46.77
2023-05-18T10:58:13.878Z,47.55
2023-05-18T10:59:13.904Z,47.45
2023-05-18T11:00:13.932Z,47.26
2023-05-18T11:01:14.021Z,47.36
2023-05-18T11:02:14.119Z,46.87
2023-05-18T11:03:14.056Z,46.70
2023-05-18T11:04:14.069Z,46.80
2023-05-18T11:05:14.183Z,46.41
2023-05-18T11:06:14.113Z,46.24
2023-05-18T11:07:14.162Z,45.95
2023-05-18T11:08:14.172Z,45.37
2023-05-18T11:09:14.206Z,45.27
2023-05-18T11:10:14.250Z,45.75
2023-05-18T11:11:15.577Z,45.37
2023-05-18T11:12:14.327Z,45.85
2023-05-18T11:13:14.363Z,45.10
2023-05-18T11:14:14.365Z,45.20
2023-05-18T11:15:14.397Z,45.00
2023-05-18T11:16:14.493Z,44.88
2023-05-18T11:17:14.459Z,44.88
2023-05-18T11:18:14.532Z,45.27
2023-05-18T11:19:14.547Z,45.54
2023-05-18T11:20:14.588Z,46.02
2023-05-18T11:21:14.580Z,46.80
2023-05-18T11:22:14.616Z,46.48
2023-05-18T11:23:14.647Z,46.48
2023-05-18T11:24:14.670Z,46.67
2023-05-18T11:25:14.700Z,47.24
2023-05-18T11:26:14.735Z,47.02
2023-05-18T11:27:14.773Z,47.41
2023-05-18T11:28:14.800Z,47.50
2023-05-18T11:29:14.813Z,48.37
2023-05-18T11:30:15.842Z,49.34
2023-05-18T11:31:14.878Z,48.69
2023-05-18T11:32:19.032Z,47.72
2023-05-18T11:33:15.092Z,47.69
2023-05-18T11:34:14.961Z,47.89
2023-05-18T11:35:14.984Z,47.99
2023-05-18T11:36:15.157Z,47.79
2023-05-18T11:37:15.049Z,48.27
2023-05-18T11:38:15.067Z,48.06
2023-05-18T11:39:15.095Z,48.06
2023-05-18T11:40:15.161Z,48.23
2023-05-18T11:41:15.149Z,48.11
2023-05-18T11:42:15.175Z,48.01
2023-05-18T11:43:15.203Z,48.59
2023-05-18T11:44:15.303Z,49.15
2023-05-18T11:45:15.260Z,49.41
2023-05-18T11:46:15.285Z,49.90
2023-05-18T11:47:15.310Z,50.09
2023-05-18T11:48:15.401Z,50.45
2023-05-18T11:49:15.397Z,50.93
2023-05-18T11:50:15.388Z,50.90
2023-05-18T11:51:15.428Z,51.48
2023-05-18T11:52:15.437Z,51.58
2023-05-18T11:53:15.532Z,51.89
2023-05-18T11:54:15.492Z,52.09
2023-05-18T11:55:15.516Z,51.89
2023-05-18T11:56:15.539Z,51.63
2023-05-18T11:57:15.608Z,51.44
2023-05-18T11:58:15.588Z,50.57
2023-05-18T11:59:15.641Z,50.28
2023-05-18T12:00:15.655Z,50.47
2023-05-18T12:01:15.673Z,51.15
2023-05-18T12:02:15.735Z,51.44
2023-05-18T12:03:15.845Z,51.17
2023-05-18T12:04:15.851Z,50.89
2023-05-18T12:05:15.777Z,50.91
2023-05-18T12:06:15.803Z,50.74
2023-05-18T12:07:15.833Z,50.09
2023-05-18T12:08:15.937Z,49.22
2023-05-18T12:09:15.894Z,49.34
2023-05-18T12:10:15.920Z,48.97
2023-05-18T12:11:15.946Z,48.11
2023-05-18T12:12:15.974Z,47.55
2023-05-18T12:13:16.004Z,46.48
2023-05-18T12:14:16.036Z,46.09
2023-05-18T12:15:17.446Z,46.09
2023-05-18T12:16:16.136Z,46.87
2023-05-18T12:17:16.122Z,47.55
2023-05-18T12:18:16.221Z,47.36
2023-05-18T12:19:16.217Z,47.64
2023-05-18T12:20:16.206Z,47.94
2023-05-18T12:21:16.229Z,47.38
2023-05-18T12:22:16.259Z,47.09
2023-05-18T12:23:16.288Z,46.80
2023-05-18T12:24:16.316Z,46.77
2023-05-18T12:25:16.348Z,46.48
2023-05-18T12:26:16.374Z,46.77
2023-05-18T12:27:16.403Z,46.97
2023-05-18T12:28:16.458Z,46.94
2023-05-18T12:29:16.461Z,47.04
2023-05-18T12:30:16.521Z,47.11
2023-05-18T12:31:16.539Z,47.21
2023-05-18T12:32:16.545Z,47.50
2023-05-18T12:33:16.670Z,47.96
2023-05-18T12:34:16.600Z,48.06
2023-05-18T12:35:16.626Z,48.03
2023-05-18T12:36:16.657Z,48.42
2023-05-18T12:37:16.742Z,48.61
2023-05-18T12:38:16.709Z,48.59
2023-05-18T12:39:16.757Z,48.59
2023-05-18T12:40:16.797Z,49.34
2023-05-18T12:41:16.793Z,49.44
2023-05-18T12:42:16.842Z,49.34
2023-05-18T12:43:16.842Z,49.82
2023-05-18T12:44:16.915Z,49.63
2023-05-18T12:45:16.896Z,49.85
2023-05-18T12:46:16.970Z,49.75
2023-05-18T12:47:16.952Z,49.55
2023-05-18T12:48:17.034Z,49.75
2023-05-18T12:49:17.001Z,49.58
2023-05-18T12:50:17.037Z,49.77
2023-05-18T12:51:17.058Z,49.87
2023-05-18T12:52:17.077Z,49.77